createdAt,value
2023-04-26T00:00:37.707Z,54.88
2023-04-26T00:01:37.709Z,54.88
2023-04-26T00:02:37.853Z,54.69
2023-04-26T00:03:38.085Z,54.91
2023-04-26T00:04:37.841Z,55.16
2023-04-26T00:05:37.746Z,55.10
2023-04-26T00:06:37.682Z,55.02
2023-04-26T00:07:37.658Z,55.05
2023-04-26T00:08:37.667Z,55.05
2023-04-26T00:09:37.682Z,54.64
2023-04-26T00:10:37.695Z,54.47
2023-04-26T00:11:37.646Z,54.37
2023-04-26T00:12:37.634Z,54.15
2023-04-26T00:13:37.622Z,54.66
2023-04-26T00:14:37.637Z,54.94
2023-04-26T00:15:37.629Z,55.29
2023-04-26T00:16:37.690Z,55.10
2023-04-26T00:17:37.641Z,55.65
2023-04-26T00:18:37.615Z,57.12
2023-04-26T00:19:37.604Z,55.78
2023-04-26T00:20:37.571Z,55.02
2023-04-26T00:21:37.569Z,54.95
2023-04-26T00:22:37.604Z,55.47
2023-04-26T00:23:37.640Z,56.95
2023-04-26T00:24:37.647Z,54.71
2023-04-26T00:25:37.600Z,54.97
2023-04-26T00:26:37.596Z,54.48
2023-04-26T00:27:37.593Z,54.30
2023-04-26T00:28:37.599Z,54.49
2023-04-26T00:29:37.554Z,54.73
2023-04-26T00:30:37.577Z,55.15
2023-04-26T00:31:37.549Z,55.07
2023-04-26T00:32:37.556Z,55.17
2023-04-26T00:33:37.518Z,55.36
2023-04-26T00:34:38.140Z,55.65
2023-04-26T00:35:37.550Z,55.83
2023-04-26T00:36:37.483Z,56.01
2023-04-26T00:37:37.452Z,56.03
2023-04-26T00:38:37.439Z,55.85
2023-04-26T00:39:37.429Z,56.47
2023-04-26T00:40:37.481Z,56.58
2023-04-26T00:41:37.424Z,55.76
2023-04-26T00:42:37.448Z,55.76
2023-04-26T00:43:37.421Z,55.64
2023-04-26T00:44:37.436Z,55.57
2023-04-26T00:45:57.561Z,55.92
2023-04-26T00:46:37.462Z,58.54
2023-04-26T00:47:37.457Z,56.17
2023-04-26T00:48:37.395Z,56.88
2023-04-26T00:49:37.389Z,55.32
2023-04-26T00:50:37.374Z,54.72
2023-04-26T00:51:37.358Z,57.06
2023-04-26T00:52:37.439Z,54.80
2023-04-26T00:53:37.399Z,54.79
2023-04-26T00:54:37.332Z,54.88
2023-04-26T00:55:37.394Z,54.96
2023-04-26T00:56:37.340Z,55.00
2023-04-26T00:57:37.331Z,54.86
2023-04-26T00:58:37.349Z,54.90
2023-04-26T00:59:37.359Z,55.15
2023-04-26T01:00:37.332Z,55.02
2023-04-26T01:01:37.393Z,54.98
2023-04-26T01:02:37.408Z,54.93
2023-04-26T01:03:37.398Z,55.08
2023-04-26T01:04:37.852Z,55.01
2023-04-26T01:05:37.248Z,54.78
2023-04-26T01:06:37.268Z,54.98
2023-04-26T01:07:37.254Z,56.09
2023-04-26T01:08:37.276Z,56.15
2023-04-26T01:09:37.255Z,55.39
2023-04-26T01:10:37.270Z,55.15
2023-04-26T01:11:37.243Z,55.47
2023-04-26T01:12:37.223Z,55.43
2023-04-26T01:13:37.182Z,54.22
2023-04-26T01:14:37.211Z,54.00
2023-04-26T01:15:37.177Z,54.59
2023-04-26T01:16:37.303Z,54.52
2023-04-26T01:17:37.197Z,55.01
2023-04-26T01:18:37.207Z,55.52
2023-04-26T01:19:37.154Z,55.81
2023-04-26T01:20:37.163Z,56.39
2023-04-26T01:21:37.161Z,56.69
2023-04-26T01:22:37.195Z,55.19
2023-04-26T01:23:37.138Z,55.10
2023-04-26T01:24:37.123Z,54.82
2023-04-26T01:25:37.137Z,54.92
2023-04-26T01:26:37.097Z,55.13
2023-04-26T01:27:37.130Z,55.29
2023-04-26T01:28:37.149Z,55.64
2023-04-26T01:29:37.098Z,55.90
2023-04-26T01:30:37.075Z,55.69
2023-04-26T01:31:37.097Z,55.04
2023-04-26T01:32:37.101Z,55.18
2023-04-26T01:33:37.055Z,55.66
2023-04-26T01:34:37.088Z,55.46
2023-04-26T01:35:37.062Z,55.55
2023-04-26T01:36:37.073Z,55.04
2023-04-26T01:37:37.036Z,54.98
2023-04-26T01:38:37.034Z,55.13
2023-04-26T01:39:37.056Z,55.34
2023-04-26T01:40:37.050Z,56.99
2023-04-26T01:41:36.996Z,55.88
2023-04-26T01:42:37.015Z,55.86
2023-04-26T01:43:36.992Z,56.16
2023-04-26T01:44:37.006Z,57.02
2023-04-26T01:45:36.990Z,56.18
2023-04-26T01:46:37.064Z,56.55
2023-04-26T01:47:36.993Z,55.96
2023-04-26T01:48:36.946Z,55.54
2023-04-26T01:49:36.946Z,56.63
2023-04-26T01:50:36.942Z,55.22
2023-04-26T01:51:36.943Z,55.49
2023-04-26T01:52:36.955Z,55.45
2023-04-26T01:53:36.952Z,55.48
2023-04-26T01:54:36.927Z,55.42
2023-04-26T01:55:36.893Z,55.61
2023-04-26T01:56:36.913Z,55.81
2023-04-26T01:57:36.903Z,56.24
2023-04-26T01:58:36.926Z,55.69
2023-04-26T01:59:36.874Z,55.33
2023-04-26T02:00:36.864Z,55.20
2023-04-26T02:01:36.865Z,55.72
2023-04-26T02:02:37.018Z,55.67
2023-04-26T02:03:36.929Z,55.88
2023-04-26T02:04:36.904Z,56.16
2023-04-26T02:05:36.833Z,56.43
2023-04-26T02:06:36.827Z,56.91
2023-04-26T02:07:36.845Z,57.84
2023-04-26T02:08:36.841Z,55.53
2023-04-26T02:09:36.835Z,55.15
2023-04-26T02:10:37.274Z,55.35
2023-04-26T02:11:36.821Z,55.31
2023-04-26T02:12:36.805Z,54.68
2023-04-26T02:13:36.793Z,54.39
2023-04-26T02:14:36.765Z,54.70
2023-04-26T02:15:36.782Z,55.06
2023-04-26T02:16:36.895Z,55.45
2023-04-26T02:17:36.811Z,55.49
2023-04-26T02:18:36.764Z,55.62
2023-04-26T02:19:36.738Z,56.10
2023-04-26T02:20:36.728Z,55.57
2023-04-26T02:21:36.707Z,56.36
2023-04-26T02:22:36.802Z,56.09
2023-04-26T02:23:36.721Z,56.32
2023-04-26T02:24:36.707Z,57.25
2023-04-26T02:25:36.714Z,55.47
2023-04-26T02:26:57.692Z,55.59
2023-04-26T02:27:36.688Z,56.68
2023-04-26T02:28:36.763Z,56.49
2023-04-26T02:29:43.967Z,56.32
2023-04-26T02:30:37.708Z,55.64
2023-04-26T02:31:36.733Z,56.38
2023-04-26T02:32:36.733Z,55.63
2023-04-26T02:33:36.642Z,55.73
2023-04-26T02:34:36.695Z,56.77
2023-04-26T02:35:36.647Z,55.92
2023-04-26T02:36:36.632Z,56.10
2023-04-26T02:37:36.623Z,57.23
2023-04-26T02:38:36.738Z,56.00
2023-04-26T02:39:36.586Z,57.45
2023-04-26T02:40:36.632Z,57.66
2023-04-26T02:41:36.605Z,57.96
2023-04-26T02:42:36.590Z,56.41
2023-04-26T02:43:36.559Z,56.35
2023-04-26T02:44:36.585Z,56.09
2023-04-26T02:45:36.564Z,56.49
2023-04-26T02:46:36.644Z,57.35
2023-04-26T02:47:36.545Z,55.98
2023-04-26T02:48:36.522Z,55.70
2023-04-26T02:49:36.526Z,58.39
2023-04-26T02:50:36.544Z,54.69
2023-04-26T02:51:36.519Z,56.62
2023-04-26T02:52:36.532Z,54.33
2023-04-26T02:53:36.505Z,56.67
2023-04-26T02:54:36.496Z,55.67
2023-04-26T02:55:36.488Z,55.76
2023-04-26T02:56:36.466Z,55.50
2023-04-26T02:57:36.475Z,55.71
2023-04-26T02:58:36.526Z,55.66
2023-04-26T02:59:36.437Z,55.74
2023-04-26T03:00:36.455Z,55.92
2023-04-26T03:01:36.505Z,56.39
2023-04-26T03:02:36.577Z,56.11
2023-04-26T03:03:36.523Z,57.09
2023-04-26T03:04:36.473Z,59.19
2023-04-26T03:05:36.421Z,65.29
2023-04-26T03:06:36.394Z,57.89
2023-04-26T03:07:36.385Z,56.81
2023-04-26T03:08:36.395Z,57.14
2023-04-26T03:09:36.382Z,57.25
2023-04-26T03:10:36.407Z,57.52
2023-04-26T03:11:36.373Z,57.28
2023-04-26T03:12:36.360Z,57.16
2023-04-26T03:13:36.373Z,57.64
2023-04-26T03:14:36.334Z,58.24
2023-04-26T03:15:36.334Z,60.62
2023-04-26T03:16:36.568Z,59.18
2023-04-26T03:17:36.370Z,59.89
2023-04-26T03:18:36.292Z,60.06
2023-04-26T03:19:36.326Z,61.46
2023-04-26T03:20:36.297Z,60.18
2023-04-26T03:21:36.318Z,59.10
2023-04-26T03:22:36.340Z,59.44
2023-04-26T03:23:36.303Z,59.20
2023-04-26T03:24:36.298Z,58.93
2023-04-26T03:25:36.279Z,59.42
2023-04-26T03:26:36.260Z,59.64
2023-04-26T03:27:36.261Z,59.79
2023-04-26T03:28:36.280Z,60.48
2023-04-26T03:29:36.261Z,63.38
2023-04-26T03:30:36.227Z,59.92
2023-04-26T03:31:36.269Z,61.28
2023-04-26T03:32:36.289Z,59.77
2023-04-26T03:33:36.217Z,60.70
2023-04-26T03:34:36.266Z,59.87
2023-04-26T03:35:36.225Z,61.38
2023-04-26T03:36:36.183Z,59.22
2023-04-26T03:37:36.213Z,59.57
2023-04-26T03:38:36.214Z,60.61
2023-04-26T03:39:36.216Z,59.24
2023-04-26T03:40:36.228Z,61.45
2023-04-26T03:41:36.189Z,59.99
2023-04-26T03:42:36.189Z,59.85
2023-04-26T03:43:36.181Z,61.79
2023-04-26T03:44:36.169Z,58.57
2023-04-26T03:45:36.172Z,58.95
2023-04-26T03:46:36.187Z,58.85
2023-04-26T03:47:36.175Z,61.72
2023-04-26T03:48:36.150Z,61.60
2023-04-26T03:49:41.628Z,61.87
2023-04-26T03:50:36.098Z,61.80
2023-04-26T03:51:36.095Z,59.61
2023-04-26T03:52:36.143Z,59.39
2023-04-26T03:53:36.126Z,59.63
2023-04-26T03:54:36.096Z,62.71
2023-04-26T03:55:36.129Z,60.06
2023-04-26T03:56:36.072Z,59.32
2023-04-26T03:57:36.063Z,61.45
2023-04-26T03:58:36.075Z,59.62
2023-04-26T03:59:36.060Z,59.53
2023-04-26T04:00:36.129Z,60.25
2023-04-26T04:01:36.030Z,62.37
2023-04-26T04:02:36.275Z,63.33
2023-04-26T04:03:37.865Z,62.60
2023-04-26T04:04:36.115Z,60.29
2023-04-26T04:05:36.071Z,60.92
2023-04-26T04:06:36.013Z,62.58
2023-04-26T04:07:35.980Z,58.42
2023-04-26T04:08:35.975Z,58.53
2023-04-26T04:09:35.954Z,60.53
2023-04-26T04:10:35.976Z,59.05
2023-04-26T04:11:35.968Z,57.64
2023-04-26T04:12:35.959Z,58.86
2023-04-26T04:13:35.923Z,58.35
2023-04-26T04:14:35.905Z,59.14
2023-04-26T04:15:35.996Z,58.18
2023-04-26T04:16:35.967Z,59.13
2023-04-26T04:17:38.233Z,59.37
2023-04-26T04:18:35.886Z,58.61
2023-04-26T04:19:35.906Z,58.23
2023-04-26T04:20:35.908Z,58.35
2023-04-26T04:21:35.877Z,56.89
2023-04-26T04:22:36.375Z,58.46
2023-04-26T04:23:35.890Z,58.75
2023-04-26T04:24:35.881Z,57.84
2023-04-26T04:25:35.870Z,57.72
2023-04-26T04:26:35.844Z,58.50
2023-04-26T04:27:35.841Z,58.78
2023-04-26T04:28:35.862Z,58.88
2023-04-26T04:29:35.835Z,59.66
2023-04-26T04:30:35.829Z,58.58
2023-04-26T04:31:35.844Z,61.11
2023-04-26T04:32:39.660Z,61.99
2023-04-26T04:33:35.803Z,59.30
2023-04-26T04:34:35.837Z,57.88
2023-04-26T04:35:35.777Z,59.68
2023-04-26T04:36:35.778Z,59.15
2023-04-26T04:37:35.766Z,57.58
2023-04-26T04:38:35.745Z,58.62
2023-04-26T04:39:35.737Z,58.83
2023-04-26T04:40:35.797Z,58.14
2023-04-26T04:41:35.750Z,57.03
2023-04-26T04:42:35.726Z,58.19
2023-04-26T04:43:35.728Z,61.66
2023-04-26T04:44:35.714Z,59.35
2023-04-26T04:45:35.749Z,58.19
2023-04-26T04:46:35.765Z,60.26
2023-04-26T04:47:35.722Z,59.21
2023-04-26T04:48:35.694Z,60.57
2023-04-26T04:49:35.676Z,57.24
2023-04-26T04:50:35.672Z,59.65
2023-04-26T04:51:35.636Z,60.66
2023-04-26T04:52:35.700Z,61.87
2023-04-26T04:53:35.685Z,59.47
2023-04-26T04:54:35.647Z,59.92
2023-04-26T04:55:35.627Z,59.02
2023-04-26T04:56:35.607Z,58.31
2023-04-26T04:57:35.630Z,59.13
2023-04-26T04:58:35.638Z,59.08
2023-04-26T04:59:42.436Z,62.47
2023-04-26T05:00:35.587Z,63.82
2023-04-26T05:01:35.615Z,64.66
2023-04-26T05:02:35.644Z,61.45
2023-04-26T05:03:35.759Z,59.16
2023-04-26T05:04:35.711Z,61.22
2023-04-26T05:05:35.557Z,57.66
2023-04-26T05:06:35.565Z,60.44
2023-04-26T05:07:35.571Z,58.05
2023-04-26T05:08:35.545Z,58.69
2023-04-26T05:09:35.538Z,60.26
2023-04-26T05:10:35.562Z,64.00
2023-04-26T05:11:35.534Z,61.75
2023-04-26T05:12:35.582Z,61.16
2023-04-26T05:13:35.558Z,59.37
2023-04-26T05:14:35.486Z,64.69
2023-04-26T05:15:35.481Z,58.16
2023-04-26T05:16:35.554Z,58.24
2023-04-26T05:17:35.568Z,60.43
2023-04-26T05:18:35.459Z,57.90
2023-04-26T05:19:35.453Z,59.03
2023-04-26T05:20:35.473Z,62.36
2023-04-26T05:21:35.440Z,59.12
2023-04-26T05:22:35.480Z,59.62
2023-04-26T05:23:35.429Z,56.98
2023-04-26T05:24:35.433Z,58.19
2023-04-26T05:25:50.978Z,61.71
2023-04-26T05:26:36.421Z,59.13
2023-04-26T05:27:35.390Z,61.52
2023-04-26T05:28:35.636Z,60.23
2023-04-26T05:29:35.385Z,58.65
2023-04-26T05:30:35.394Z,60.04
2023-04-26T05:31:35.382Z,60.47
2023-04-26T05:32:35.436Z,62.28
2023-04-26T05:33:35.350Z,60.20
2023-04-26T05:34:35.426Z,58.17
2023-04-26T05:35:35.351Z,60.95
2023-04-26T05:36:35.361Z,62.72
2023-04-26T05:37:35.333Z,63.31
2023-04-26T05:38:35.347Z,62.01
2023-04-26T05:39:41.037Z,60.92
2023-04-26T05:40:35.347Z,60.54
2023-04-26T05:41:35.301Z,59.59
2023-04-26T05:42:35.311Z,61.17
2023-04-26T05:43:35.294Z,62.59
2023-04-26T05:44:35.280Z,60.95
2023-04-26T05:45:35.319Z,59.28
2023-04-26T05:46:35.314Z,63.56
2023-04-26T05:47:35.301Z,62.72
2023-04-26T05:48:35.312Z,60.64
2023-04-26T05:49:35.264Z,61.95
2023-04-26T05:50:35.273Z,60.14
2023-04-26T05:51:35.250Z,61.17
2023-04-26T05:52:35.283Z,62.28
2023-04-26T05:53:35.204Z,61.98
2023-04-26T05:54:35.215Z,60.87
2023-04-26T05:55:35.216Z,62.74
2023-04-26T05:56:35.194Z,61.71
2023-04-26T05:57:35.255Z,62.50
2023-04-26T05:58:35.221Z,62.61
2023-04-26T05:59:35.179Z,61.83
2023-04-26T06:00:35.215Z,59.79
2023-04-26T06:01:35.181Z,60.89
2023-04-26T06:02:35.249Z,59.42
2023-04-26T06:03:35.466Z,58.47
2023-04-26T06:04:35.308Z,59.51
2023-04-26T06:05:35.190Z,59.39
2023-04-26T06:06:35.143Z,62.88
2023-04-26T06:07:35.143Z,59.60
2023-04-26T06:08:35.101Z,59.99
2023-04-26T06:09:35.118Z,60.77
2023-04-26T06:10:35.154Z,62.58
2023-04-26T06:11:35.100Z,58.86
2023-04-26T06:12:35.113Z,61.48
2023-04-26T06:13:35.078Z,62.67
2023-04-26T06:14:35.084Z,60.81
2023-04-26T06:15:35.063Z,60.62
2023-04-26T06:16:35.142Z,59.42
2023-04-26T06:17:35.060Z,62.50
2023-04-26T06:18:35.050Z,61.88
2023-04-26T06:19:35.123Z,60.01
2023-04-26T06:20:35.036Z,58.60
2023-04-26T06:21:35.007Z,60.63
2023-04-26T06:22:35.057Z,60.78
2023-04-26T06:23:35.016Z,62.08
2023-04-26T06:24:35.028Z,62.53
2023-04-26T06:25:34.996Z,60.23
2023-04-26T06:26:34.997Z,61.10
2023-04-26T06:27:34.978Z,60.35
2023-04-26T06:28:35.000Z,60.35
2023-04-26T06:29:34.981Z,59.70
2023-04-26T06:30:34.968Z,58.03
2023-04-26T06:31:35.050Z,60.03
2023-04-26T06:32:35.041Z,60.32
2023-04-26T06:33:34.937Z,58.03
2023-04-26T06:34:35.008Z,59.64
2023-04-26T06:35:34.933Z,60.25
2023-04-26T06:36:34.927Z,58.18
2023-04-26T06:37:34.912Z,59.48
2023-04-26T06:38:34.902Z,59.71
2023-04-26T06:39:34.882Z,60.72
2023-04-26T06:40:34.942Z,61.06
2023-04-26T06:41:34.870Z,61.91
2023-04-26T06:42:34.869Z,60.96
2023-04-26T06:43:34.871Z,60.34
2023-04-26T06:44:34.874Z,61.68
2023-04-26T06:45:34.857Z,59.48
2023-04-26T06:46:34.998Z,56.77
2023-04-26T06:47:34.855Z,61.62
2023-04-26T06:48:34.840Z,59.85
2023-04-26T06:49:34.822Z,58.13
2023-04-26T06:50:34.807Z,59.07
2023-04-26T06:51:34.824Z,60.03
2023-04-26T06:52:34.867Z,62.00
2023-04-26T06:53:34.780Z,60.02
2023-04-26T06:54:39.876Z,59.64
2023-04-26T06:55:35.780Z,60.47
2023-04-26T06:56:34.953Z,59.84
2023-04-26T06:57:34.762Z,60.37
2023-04-26T06:58:34.795Z,58.91
2023-04-26T06:59:34.768Z,61.00
2023-04-26T07:00:34.758Z,58.36
2023-04-26T07:01:34.770Z,59.55
2023-04-26T07:02:34.833Z,61.25
2023-04-26T07:03:34.983Z,60.68
2023-04-26T07:04:34.966Z,58.39
2023-04-26T07:05:39.205Z,59.31
2023-04-26T07:06:34.866Z,58.79
2023-04-26T07:07:34.835Z,62.21
2023-04-26T07:08:34.683Z,59.98
2023-04-26T07:09:34.696Z,58.13
2023-04-26T07:10:34.749Z,59.28
2023-04-26T07:11:34.717Z,58.31
2023-04-26T07:12:34.670Z,58.47
2023-04-26T07:13:34.737Z,60.09
2023-04-26T07:14:35.974Z,58.92
2023-04-26T07:15:34.643Z,58.00
2023-04-26T07:16:34.684Z,57.86
2023-04-26T07:17:34.708Z,59.77
2023-04-26T07:18:34.658Z,59.21
2023-04-26T07:19:34.620Z,58.77
2023-04-26T07:20:34.611Z,56.54
2023-04-26T07:21:34.599Z,58.03
2023-04-26T07:22:34.640Z,60.40
2023-04-26T07:23:34.618Z,64.19
2023-04-26T07:24:34.849Z,63.03
2023-04-26T07:25:34.587Z,58.42
2023-04-26T07:26:34.567Z,59.38
2023-04-26T07:27:34.544Z,57.69
2023-04-26T07:28:34.607Z,58.44
2023-04-26T07:29:34.552Z,58.87
2023-04-26T07:30:34.527Z,59.30
2023-04-26T07:31:34.544Z,57.23
2023-04-26T07:32:34.611Z,57.05
2023-04-26T07:33:34.757Z,57.36
2023-04-26T07:34:34.764Z,58.39
2023-04-26T07:35:34.527Z,60.54
2023-04-26T07:36:34.518Z,59.60
2023-04-26T07:37:34.502Z,60.53
2023-04-26T07:38:34.476Z,58.54
2023-04-26T07:39:34.464Z,58.37
2023-04-26T07:40:34.478Z,59.53
2023-04-26T07:41:34.454Z,58.04
2023-04-26T07:42:34.461Z,63.38
2023-04-26T07:43:34.433Z,60.37
2023-04-26T07:44:34.444Z,63.14
2023-04-26T07:45:34.580Z,58.79
2023-04-26T07:46:34.462Z,56.46
2023-04-26T07:47:34.445Z,59.74
2023-04-26T07:48:34.428Z,59.15
2023-04-26T07:49:34.393Z,59.99
2023-04-26T07:50:34.371Z,57.67
2023-04-26T07:51:34.398Z,59.43
2023-04-26T07:52:34.408Z,56.75
2023-04-26T07:53:34.376Z,59.11
2023-04-26T07:54:34.375Z,58.03
2023-04-26T07:55:34.417Z,59.33
2023-04-26T07:56:34.348Z,58.40
2023-04-26T07:57:34.331Z,59.84
2023-04-26T07:58:34.394Z,59.38
2023-04-26T07:59:34.335Z,59.48
2023-04-26T08:00:34.321Z,59.89
2023-04-26T08:01:34.320Z,59.98
2023-04-26T08:02:44.067Z,57.97
2023-04-26T08:03:35.566Z,59.31
2023-04-26T08:04:34.558Z,59.67
2023-04-26T08:05:34.458Z,61.32
2023-04-26T08:06:34.260Z,60.30
2023-04-26T08:07:34.264Z,59.93
2023-04-26T08:08:34.267Z,58.65
2023-04-26T08:09:34.330Z,58.45
2023-04-26T08:10:34.244Z,58.31
2023-04-26T08:11:34.299Z,57.70
2023-04-26T08:12:34.220Z,56.36
2023-04-26T08:13:34.211Z,55.58
2023-04-26T08:14:34.209Z,58.18
2023-04-26T08:15:34.230Z,57.95
2023-04-26T08:16:34.244Z,57.19
2023-04-26T08:17:41.466Z,57.62
2023-04-26T08:18:34.201Z,55.12
2023-04-26T08:19:34.162Z,58.40
2023-04-26T08:20:34.173Z,58.73
2023-04-26T08:21:34.189Z,55.87
2023-04-26T08:22:34.188Z,57.88
2023-04-26T08:23:34.125Z,57.59
2023-04-26T08:24:34.130Z,56.41
2023-04-26T08:25:34.119Z,59.08
2023-04-26T08:26:34.096Z,60.39
2023-04-26T08:27:34.227Z,58.53
2023-04-26T08:28:34.107Z,57.53
2023-04-26T08:29:34.099Z,55.20
2023-04-26T08:30:34.119Z,58.22
2023-04-26T08:31:34.169Z,58.12
2023-04-26T08:32:34.165Z,56.83
2023-04-26T08:33:34.117Z,57.29
2023-04-26T08:34:34.068Z,57.70
2023-04-26T08:35:34.069Z,59.52
2023-04-26T08:36:34.024Z,63.81
2023-04-26T08:37:34.025Z,60.17
2023-04-26T08:38:34.028Z,58.24
2023-04-26T08:39:34.290Z,58.09
2023-04-26T08:40:34.017Z,57.35
2023-04-26T08:41:34.037Z,58.13
2023-04-26T08:42:34.701Z,58.03
2023-04-26T08:43:34.096Z,60.76
2023-04-26T08:44:33.980Z,58.57
2023-04-26T08:45:34.013Z,61.25
2023-04-26T08:46:34.015Z,58.65
2023-04-26T08:47:33.974Z,57.81
2023-04-26T08:48:33.947Z,58.57
2023-04-26T08:49:33.936Z,57.25
2023-04-26T08:50:33.969Z,56.19
2023-04-26T08:51:33.984Z,56.58
2023-04-26T08:52:33.919Z,58.71
2023-04-26T08:53:34.028Z,56.77
2023-04-26T08:54:33.906Z,56.43
2023-04-26T08:55:33.900Z,58.55
2023-04-26T08:56:33.895Z,56.70
2023-04-26T08:57:33.923Z,56.23
2023-04-26T08:58:33.881Z,57.24
2023-04-26T08:59:33.878Z,60.44
2023-04-26T09:00:33.871Z,57.50
2023-04-26T09:01:33.923Z,56.82
2023-04-26T09:02:33.991Z,54.93
2023-04-26T09:03:33.976Z,57.09
2023-04-26T09:04:34.138Z,56.01
2023-04-26T09:05:33.844Z,56.17
2023-04-26T09:06:33.820Z,57.21
2023-04-26T09:07:33.837Z,57.42
2023-04-26T09:08:33.806Z,56.32
2023-04-26T09:09:33.849Z,56.47
2023-04-26T09:10:33.810Z,56.65
2023-04-26T09:11:33.796Z,57.38
2023-04-26T09:12:33.773Z,57.14
2023-04-26T09:13:33.764Z,58.18
2023-04-26T09:14:33.759Z,57.42
2023-04-26T09:15:33.856Z,58.51
2023-04-26T09:16:33.803Z,59.13
2023-04-26T09:17:33.782Z,58.54
2023-04-26T09:18:33.735Z,59.67
2023-04-26T09:19:33.711Z,59.72
2023-04-26T09:20:33.715Z,58.26
2023-04-26T09:21:33.729Z,56.67
2023-04-26T09:22:33.693Z,57.41
2023-04-26T09:23:33.690Z,59.52
2023-04-26T09:24:33.671Z,56.72
2023-04-26T09:25:33.686Z,56.33
2023-04-26T09:26:33.682Z,57.55
2023-04-26T09:27:33.670Z,57.44
2023-04-26T09:28:33.644Z,57.64
2023-04-26T09:29:33.625Z,56.62
2023-04-26T09:30:33.630Z,57.96
2023-04-26T09:31:33.747Z,57.86
2023-04-26T09:32:33.682Z,57.24
2023-04-26T09:33:33.678Z,57.93
2023-04-26T09:34:33.611Z,58.11
2023-04-26T09:35:33.609Z,59.27
2023-04-26T09:36:33.640Z,56.74
2023-04-26T09:37:34.566Z,57.36
2023-04-26T09:38:33.572Z,56.73
2023-04-26T09:39:33.589Z,56.19
2023-04-26T09:40:33.568Z,57.34
2023-04-26T09:41:33.561Z,57.98
2023-04-26T09:42:33.542Z,57.06
2023-04-26T09:43:35.818Z,57.43
2023-04-26T09:44:33.567Z,58.60
2023-04-26T09:45:33.974Z,58.65
2023-04-26T09:46:33.547Z,57.97
2023-04-26T09:47:33.543Z,56.83
2023-04-26T09:48:33.490Z,55.40
2023-04-26T09:49:33.486Z,55.58
2023-04-26T09:50:33.505Z,57.82
2023-04-26T09:51:33.500Z,57.40
2023-04-26T09:52:33.476Z,57.77
2023-04-26T09:53:33.472Z,57.58
2023-04-26T09:54:33.497Z,57.90
2023-04-26T09:55:35.339Z,57.91
2023-04-26T09:56:33.450Z,58.34
2023-04-26T09:57:33.458Z,57.22
2023-04-26T09:58:33.417Z,56.54
2023-04-26T09:59:33.413Z,56.88
2023-04-26T10:00:33.472Z,60.36
2023-04-26T10:01:33.497Z,59.50
2023-04-26T10:02:33.488Z,59.05
2023-04-26T10:03:33.585Z,58.41
2023-04-26T10:04:33.449Z,57.19
2023-04-26T10:05:34.155Z,59.23
2023-04-26T10:06:33.371Z,58.32
2023-04-26T10:07:33.352Z,58.83
2023-04-26T10:08:33.379Z,57.87
2023-04-26T10:09:33.481Z,57.58
2023-04-26T10:10:33.353Z,56.12
2023-04-26T10:11:33.325Z,56.52
2023-04-26T10:12:33.412Z,57.44
2023-04-26T10:13:33.400Z,55.96
2023-04-26T10:14:33.309Z,57.26
2023-04-26T10:15:33.328Z,55.17
2023-04-26T10:16:33.303Z,58.29
2023-04-26T10:17:33.369Z,59.11
2023-04-26T10:18:33.258Z,57.20
2023-04-26T10:19:33.338Z,57.26
2023-04-26T10:20:33.263Z,56.72
2023-04-26T10:21:33.289Z,54.76
2023-04-26T10:22:33.240Z,59.07
2023-04-26T10:23:33.251Z,56.35
2023-04-26T10:24:33.222Z,56.79
2023-04-26T10:25:33.252Z,57.25
2023-04-26T10:26:33.210Z,55.21
2023-04-26T10:27:33.239Z,57.08
2023-04-26T10:28:33.221Z,57.45
2023-04-26T10:29:33.191Z,55.70
2023-04-26T10:30:33.200Z,56.13
2023-04-26T10:31:33.970Z,57.08
2023-04-26T10:32:33.160Z,58.90
2023-04-26T10:33:33.185Z,57.83
2023-04-26T10:34:33.162Z,58.23
2023-04-26T10:35:33.169Z,58.84
2023-04-26T10:36:33.144Z,58.39
2023-04-26T10:37:33.133Z,63.82
2023-04-26T10:38:33.171Z,60.13
2023-04-26T10:39:33.189Z,58.70
2023-04-26T10:40:33.099Z,60.78
2023-04-26T10:41:33.168Z,57.19
2023-04-26T10:42:33.102Z,56.67
2023-04-26T10:43:33.077Z,58.56
2023-04-26T10:44:33.113Z,58.63
2023-04-26T10:45:33.102Z,58.90
2023-04-26T10:46:33.177Z,55.87
2023-04-26T10:47:33.110Z,57.33
2023-04-26T10:48:33.072Z,57.66
2023-04-26T10:49:33.030Z,62.37
2023-04-26T10:50:33.029Z,57.79
2023-04-26T10:51:33.521Z,58.76
2023-04-26T10:52:33.102Z,57.23
2023-04-26T10:53:33.026Z,55.37
2023-04-26T10:54:32.996Z,55.58
2023-04-26T10:55:32.989Z,57.41
2023-04-26T10:56:33.026Z,57.28
2023-04-26T10:57:33.023Z,59.63
2023-04-26T10:58:32.969Z,56.97
2023-04-26T10:59:43.428Z,57.44
2023-04-26T11:00:33.956Z,56.25
2023-04-26T11:01:32.957Z,57.25
2023-04-26T11:02:32.991Z,58.83
2023-04-26T11:03:33.200Z,59.05
2023-04-26T11:04:32.936Z,56.37
2023-04-26T11:05:32.941Z,57.13
2023-04-26T11:06:32.951Z,59.09
2023-04-26T11:07:32.891Z,58.23
2023-04-26T11:08:32.917Z,55.97
2023-04-26T11:09:32.946Z,57.86
2023-04-26T11:10:33.982Z,56.79
2023-04-26T11:11:32.973Z,56.53
2023-04-26T11:12:32.912Z,57.21
2023-04-26T11:13:32.894Z,58.05
2023-04-26T11:14:32.883Z,56.30
2023-04-26T11:15:32.917Z,57.23
2023-04-26T11:16:32.865Z,55.04
2023-04-26T11:17:32.867Z,55.22
2023-04-26T11:18:32.854Z,58.76
2023-04-26T11:19:32.823Z,58.62
2023-04-26T11:20:32.812Z,57.99
2023-04-26T11:21:32.853Z,58.07
2023-04-26T11:22:33.834Z,56.23
2023-04-26T11:23:32.840Z,57.08
2023-04-26T11:24:32.867Z,58.28
2023-04-26T11:25:32.762Z,57.19
2023-04-26T11:26:32.820Z,56.70
2023-04-26T11:27:32.904Z,55.26
2023-04-26T11:28:34.288Z,55.93
2023-04-26T11:29:32.805Z,55.50
2023-04-26T11:30:32.776Z,54.09
2023-04-26T11:31:32.814Z,55.18
2023-04-26T11:32:32.725Z,56.26
2023-04-26T11:33:32.810Z,57.71
2023-04-26T11:34:32.725Z,57.34
2023-04-26T11:35:32.703Z,57.17
2023-04-26T11:36:32.681Z,57.42
2023-04-26T11:37:32.701Z,56.14
2023-04-26T11:38:32.722Z,56.18
2023-04-26T11:39:32.761Z,56.20
2023-04-26T11:40:32.709Z,58.66
2023-04-26T11:41:32.688Z,56.36
2023-04-26T11:42:32.655Z,57.15
2023-04-26T11:43:32.679Z,57.95
2023-04-26T11:44:32.680Z,58.35
2023-04-26T11:45:32.682Z,56.32
2023-04-26T11:46:32.703Z,59.11
2023-04-26T11:47:32.644Z,57.35
2023-04-26T11:48:32.596Z,56.26
2023-04-26T11:49:32.612Z,59.69
2023-04-26T11:50:32.584Z,57.89
2023-04-26T11:51:32.655Z,56.19
2023-04-26T11:52:32.578Z,57.17
2023-04-26T11:53:32.602Z,57.68
2023-04-26T11:54:32.549Z,55.95
2023-04-26T11:55:32.545Z,58.25
2023-04-26T11:56:32.553Z,56.20
2023-04-26T11:57:32.801Z,57.10
2023-04-26T11:58:32.574Z,55.85
2023-04-26T11:59:32.521Z,57.62
2023-04-26T12:00:32.517Z,56.73
2023-04-26T12:01:32.533Z,54.82
2023-04-26T12:02:32.629Z,57.28
2023-04-26T12:03:32.683Z,55.67
2023-04-26T12:04:32.640Z,57.71
2023-04-26T12:05:32.520Z,58.13
2023-04-26T12:06:32.492Z,57.60
2023-04-26T12:07:32.455Z,55.69
2023-04-26T12:08:32.457Z,56.03
2023-04-26T12:09:32.509Z,53.98
2023-04-26T12:10:32.474Z,57.19
2023-04-26T12:11:32.433Z,56.23
2023-04-26T12:12:32.473Z,56.55
2023-04-26T12:13:32.423Z,56.03
2023-04-26T12:14:32.407Z,59.22
2023-04-26T12:15:32.498Z,57.47
2023-04-26T12:16:32.436Z,56.27
2023-04-26T12:17:32.440Z,58.16
2023-04-26T12:18:32.388Z,59.17
2023-04-26T12:19:32.393Z,58.25
2023-04-26T12:20:32.354Z,56.52
2023-04-26T12:21:32.427Z,54.65
2023-04-26T12:22:32.330Z,56.53
2023-04-26T12:23:32.335Z,56.27
2023-04-26T12:24:32.340Z,55.26
2023-04-26T12:25:32.349Z,56.88
2023-04-26T12:26:32.375Z,56.04
2023-04-26T12:27:32.377Z,56.02
2023-04-26T12:28:32.350Z,57.51
2023-04-26T12:29:32.302Z,57.50
2023-04-26T12:30:32.329Z,55.72
2023-04-26T12:31:32.309Z,57.82
2023-04-26T12:32:32.313Z,57.77
2023-04-26T12:33:32.376Z,57.90
2023-04-26T12:34:32.274Z,57.29
2023-04-26T12:35:32.310Z,55.40
2023-04-26T12:36:32.310Z,56.44
2023-04-26T12:37:33.293Z,55.67
2023-04-26T12:38:32.230Z,54.71
2023-04-26T12:39:32.291Z,55.88
2023-04-26T12:40:32.245Z,56.76
2023-04-26T12:41:32.230Z,55.82
2023-04-26T12:42:32.231Z,55.20
2023-04-26T12:43:32.261Z,54.26
2023-04-26T12:44:32.223Z,56.44
2023-04-26T12:45:32.250Z,57.14
2023-04-26T12:46:32.250Z,57.22
2023-04-26T12:47:32.289Z,56.36
2023-04-26T12:48:32.162Z,54.40
2023-04-26T12:49:32.174Z,53.92
2023-04-26T12:50:32.170Z,56.82
2023-04-26T12:51:32.255Z,54.84
2023-04-26T12:52:32.197Z,55.24